KETN/ETN METAR and TAF weather

Enter ICAO airport designator
Station Type Date Time Source
KETN METAR 2020/12/05 05:35 UTC NOAA

KETN 050535Z AUTO 00000KT 10SM CLR M04/M06 A3025 RMK AO2 T10411061


Station Type Date Time Source
KETN Decoded METAR 2020/12/05 05:35 UTC NOAA

Station name not available
Dec 05, 2020 - 12:35 AM EST / 2020.12.05 0535 UTC
Wind: Calm:0
Visibility: 10 mile(s):0
Sky conditions: clear
Temperature: 24.6 F (-4.1 C)
Dew Point: 21.0 F (-6.1 C)
Relative Humidity: 85%
Pressure (altimeter): 30.25 in. Hg (1024 hPa)
ob: KETN 050535Z AUTO 00000KT 10SM CLR M04/M06 A3025 RMK AO2 T10411061
cycle: 5

Station Type Date Time Source
KETN TAF UTC NOAA

Error!

Example: see airport list